Time;durP1;ratioP1;P1;durP2;ratioP2;P2;SDS_P1;SDS_P2;PMS_P1;PMS_P2;Temp;Humidity;BMP_temperature;BMP_pressure;BME280_temperature;BME280_humidity;BME280_pressure;Samples;Min_cycle;Max_cycle;Signal;HPM_P1;HPM_P2
2023/07/19 00:01:36;;;;;;;13.43;7.90;;;13.80;99.90;;;;;;4559502;30;20701;-87
2023/07/19 00:32:08;;;;;;;9.23;6.23;;;13.70;99.90;;;;;;4523115;30;20748;-84
2023/07/19 00:57:38;;;;;;;8.53;5.83;;;13.40;99.90;;;;;;4588725;30;20316;-87
2023/07/19 01:17:55;;;;;;;8.50;5.77;;;13.30;99.90;;;;;;4620861;29;20195;-84
2023/07/19 01:43:31;;;;;;;7.20;5.00;;;13.00;99.90;;;;;;4614767;30;20270;-86
2023/07/19 02:03:46;;;;;;;7.47;5.17;;;12.80;99.90;;;;;;4516343;30;20234;-87
2023/07/19 02:28:34;;;;;;;7.10;5.07;;;12.60;99.90;;;;;;4508909;30;20722;-86
2023/07/19 02:54:26;;;;;;;7.07;5.40;;;12.80;99.90;;;;;;4495735;30;20243;-84
2023/07/19 03:40:05;;;;;;;10.60;6.60;;;13.50;99.90;;;;;;4557017;30;21171;-85
2023/07/19 04:05:37;;;;;;;7.57;5.53;;;14.20;99.90;;;;;;4695823;29;20277;-84
2023/07/19 04:35:54;;;;;;;11.97;7.30;;;15.30;99.90;;;;;;4610178;30;20277;-87
2023/07/19 05:01:08;;;;;;;13.07;7.10;;;17.10;98.90;;;;;;4539053;30;20229;-86
2023/07/19 05:26:27;;;;;;;11.10;5.27;;;18.50;93.80;;;;;;4622488;30;20294;-85
2023/07/19 05:47:00;;;;;;;6.80;4.67;;;19.80;89.30;;;;;;4604071;30;20596;-87
2023/07/19 06:07:20;;;;;;;4.63;3.80;;;21.10;82.20;;;;;;4633373;30;20340;-83
2023/07/19 06:37:39;;;;;;;3.42;2.90;;;22.90;62.10;;;;;;4679711;29;20725;-83
2023/07/19 07:08:00;;;;;;;3.17;2.20;;;23.70;55.60;;;;;;4673684;29;20302;-81
2023/07/19 08:34:21;;;;;;;2.95;1.67;;;25.20;45.60;;;;;;4598437;30;20231;-84
2023/07/19 09:09:21;;;;;;;4.55;1.52;;;25.80;45.30;;;;;;4623012;29;20603;-86
2023/07/19 09:35:04;;;;;;;2.75;1.60;;;25.60;41.70;;;;;;4840537;28;20448;-84
2023/07/19 10:15:52;;;;;;;2.15;1.60;;;26.20;45.00;;;;;;4768961;29;20261;-82
2023/07/19 10:40:33;;;;;;;2.17;1.63;;;26.20;43.50;;;;;;4636540;29;20838;-84
2023/07/19 10:56:32;;;;;;;3.25;1.67;;;26.50;42.80;;;;;;4697704;29;20455;-85
2023/07/19 11:00:51;;;;;;;2.08;1.77;;;26.80;42.30;;;;;;4657152;29;20600;-86
2023/07/19 11:21:44;;;;;;;3.45;2.08;;;27.40;41.10;;;;;;4749844;29;21192;-85
2023/07/19 11:42:09;;;;;;;2.42;1.80;;;27.60;42.10;;;;;;4692748;29;20217;-84
2023/07/19 12:07:04;;;;;;;2.42;1.77;;;28.10;41.00;;;;;;4543422;30;20637;-83
2023/07/19 12:32:40;;;;;;;3.58;1.80;;;28.10;40.90;;;;;;4587209;29;20233;-83
2023/07/19 13:08:20;;;;;;;3.25;1.95;;;29.40;40.80;;;;;;4788249;28;20215;-81
2023/07/19 13:33:40;;;;;;;2.20;2.00;;;30.20;41.30;;;;;;4721539;29;20940;-84
2023/07/19 14:19:20;;;;;;;4.45;1.85;;;33.20;42.70;;;;;;4734537;29;20918;-82
2023/07/19 14:54:26;;;;;;;3.92;2.10;;;35.00;40.50;;;;;;4726740;29;20401;-83
2023/07/19 15:20:17;;;;;;;2.60;2.10;;;33.90;40.40;;;;;;4705540;29;20575;-84
2023/07/19 15:24:37;;;;;;;5.43;2.13;;;34.10;39.70;;;;;;4628353;29;20673;-84
2023/07/19 15:45:23;;;;;;;2.78;2.00;;;35.50;39.90;;;;;;4521170;30;20497;-83
2023/07/19 17:01:40;;;;;;;4.57;1.80;;;26.60;39.30;;;;;;4872668;28;20244;-84
2023/07/19 17:32:09;;;;;;;3.13;2.22;;;25.80;40.60;;;;;;4981531;28;20249;-82
2023/07/19 17:36:29;;;;;;;3.00;1.98;;;25.60;40.20;;;;;;4907119;28;20637;-83
2023/07/19 18:06:55;;;;;;;3.42;2.45;;;24.50;41.80;;;;;;4766089;28;20731;-85
2023/07/19 18:22:55;;;;;;;4.18;2.00;;;23.80;43.20;;;;;;4776619;29;20228;-85
2023/07/19 18:27:12;;;;;;;4.45;2.63;;;23.80;44.00;;;;;;4707066;29;20565;-82
2023/07/19 18:52:33;;;;;;;3.92;2.22;;;22.00;47.20;;;;;;4826747;28;20241;-83
2023/07/19 19:13:32;;;;;;;9.27;5.30;;;21.30;48.80;;;;;;4836505;28;20623;-83
2023/07/19 19:38:54;;;;;;;5.43;3.60;;;20.20;60.20;;;;;;4761073;29;20576;-85
2023/07/19 19:59:12;;;;;;;5.00;3.40;;;19.70;79.80;;;;;;4756465;29;20212;-83
2023/07/19 20:34:00;;;;;;;5.63;3.43;;;18.90;86.80;;;;;;4686236;29;20885;-82
2023/07/19 21:04:34;;;;;;;3.73;3.33;;;18.50;87.20;;;;;;4741643;29;20456;-83
2023/07/19 21:25:13;;;;;;;4.63;3.00;;;18.20;88.70;;;;;;4757609;29;20207;-86
2023/07/19 22:26:07;;;;;;;4.53;3.00;;;18.20;88.50;;;;;;4630260;30;20219;-86
2023/07/19 23:06:42;;;;;;;4.03;2.90;;;17.60;91.10;;;;;;4780014;29;20481;-81
2023/07/19 23:31:50;;;;;;;4.17;3.20;;;17.10;92.60;;;;;;4711014;29;20791;-83
